sensor_id;sensor_type;location;lat;lon;timestamp;P1;durP1;ratioP1;P2;durP2;ratioP2
49310;SDS011;35177;45.900;5.946;2022-10-16T00:00:26;2.65;;;1.35;;
49310;SDS011;35177;45.900;5.946;2022-10-16T00:02:52;6.25;;;1.35;;
49310;SDS011;35177;45.900;5.946;2022-10-16T00:05:17;4.93;;;1.30;;
49310;SDS011;35177;45.900;5.946;2022-10-16T00:07:43;2.67;;;1.50;;
49310;SDS011;35177;45.900;5.946;2022-10-16T00:10:08;9.40;;;1.80;;
49310;SDS011;35177;45.900;5.946;2022-10-16T00:12:34;10.98;;;1.98;;
49310;SDS011;35177;45.900;5.946;2022-10-16T00:14:59;8.48;;;3.35;;
49310;SDS011;35177;45.900;5.946;2022-10-16T00:17:24;3.22;;;2.20;;
49310;SDS011;35177;45.900;5.946;2022-10-16T00:19:50;3.53;;;1.98;;
49310;SDS011;35177;45.900;5.946;2022-10-16T00:22:15;11.98;;;2.05;;
49310;SDS011;35177;45.900;5.946;2022-10-16T00:24:41;3.92;;;1.75;;
49310;SDS011;35177;45.900;5.946;2022-10-16T00:27:06;2.47;;;1.63;;
49310;SDS011;35177;45.900;5.946;2022-10-16T00:29:32;7.03;;;2.03;;
49310;SDS011;35177;45.900;5.946;2022-10-16T00:31:57;4.30;;;1.60;;
49310;SDS011;35177;45.900;5.946;2022-10-16T00:34:23;8.70;;;1.85;;
49310;SDS011;35177;45.900;5.946;2022-10-16T00:36:48;9.55;;;2.00;;
49310;SDS011;35177;45.900;5.946;2022-10-16T00:39:14;2.92;;;1.60;;
49310;SDS011;35177;45.900;5.946;2022-10-16T00:41:39;6.22;;;1.70;;
49310;SDS011;35177;45.900;5.946;2022-10-16T00:44:41;3.95;;;1.73;;
49310;SDS011;35177;45.900;5.946;2022-10-16T00:47:17;13.43;;;1.90;;
49310;SDS011;35177;45.900;5.946;2022-10-16T00:50:06;5.80;;;1.73;;
49310;SDS011;35177;45.900;5.946;2022-10-16T00:52:34;11.25;;;2.10;;
49310;SDS011;35177;45.900;5.946;2022-10-16T00:55:02;7.10;;;1.70;;
49310;SDS011;35177;45.900;5.946;2022-10-16T00:57:29;5.95;;;1.70;;
49310;SDS011;35177;45.900;5.946;2022-10-16T00:59:55;5.10;;;1.67;;
49310;SDS011;35177;45.900;5.946;2022-10-16T01:02:22;3.95;;;1.73;;
49310;SDS011;35177;45.900;5.946;2022-10-16T01:04:49;7.45;;;2.58;;
49310;SDS011;35177;45.900;5.946;2022-10-16T01:13:06;3.20;;;1.48;;
49310;SDS011;35177;45.900;5.946;2022-10-16T01:15:36;3.50;;;1.80;;
49310;SDS011;35177;45.900;5.946;2022-10-16T01:18:08;3.92;;;1.60;;
49310;SDS011;35177;45.900;5.946;2022-10-16T01:25:55;5.03;;;1.60;;
49310;SDS011;35177;45.900;5.946;2022-10-16T01:28:48;2.72;;;1.58;;
49310;SDS011;35177;45.900;5.946;2022-10-16T01:31:19;2.90;;;1.50;;
49310;SDS011;35177;45.900;5.946;2022-10-16T01:34:00;11.35;;;2.08;;
49310;SDS011;35177;45.900;5.946;2022-10-16T01:36:40;15.68;;;2.22;;
49310;SDS011;35177;45.900;5.946;2022-10-16T01:39:11;4.20;;;1.20;;
49310;SDS011;35177;45.900;5.946;2022-10-16T01:41:43;4.88;;;1.70;;
49310;SDS011;35177;45.900;5.946;2022-10-16T01:44:20;6.97;;;1.65;;
49310;SDS011;35177;45.900;5.946;2022-10-16T01:46:51;3.50;;;2.03;;
49310;SDS011;35177;45.900;5.946;2022-10-16T01:49:20;5.78;;;1.70;;
49310;SDS011;35177;45.900;5.946;2022-10-16T01:51:48;12.30;;;1.73;;
49310;SDS011;35177;45.900;5.946;2022-10-16T01:54:17;7.72;;;2.15;;
49310;SDS011;35177;45.900;5.946;2022-10-16T01:56:45;4.55;;;2.13;;
49310;SDS011;35177;45.900;5.946;2022-10-16T01:59:14;2.28;;;1.70;;
49310;SDS011;35177;45.900;5.946;2022-10-16T02:01:44;5.50;;;2.25;;
49310;SDS011;35177;45.900;5.946;2022-10-16T02:04:19;3.00;;;1.83;;
49310;SDS011;35177;45.900;5.946;2022-10-16T02:06:49;12.25;;;1.90;;
49310;SDS011;35177;45.900;5.946;2022-10-16T02:09:15;3.35;;;1.85;;
49310;SDS011;35177;45.900;5.946;2022-10-16T02:11:42;6.90;;;1.60;;
49310;SDS011;35177;45.900;5.946;2022-10-16T02:14:08;5.38;;;1.83;;
49310;SDS011;35177;45.900;5.946;2022-10-16T02:16:35;5.18;;;1.95;;
49310;SDS011;35177;45.900;5.946;2022-10-16T02:19:04;3.50;;;1.83;;
49310;SDS011;35177;45.900;5.946;2022-10-16T02:21:41;33.55;;;2.63;;
49310;SDS011;35177;45.900;5.946;2022-10-16T02:24:38;4.88;;;2.53;;
49310;SDS011;35177;45.900;5.946;2022-10-16T02:27:17;2.70;;;1.70;;
49310;SDS011;35177;45.900;5.946;2022-10-16T02:29:53;7.57;;;1.88;;
49310;SDS011;35177;45.900;5.946;2022-10-16T02:32:24;3.65;;;1.70;;
49310;SDS011;35177;45.900;5.946;2022-10-16T02:34:55;4.05;;;1.95;;
49310;SDS011;35177;45.900;5.946;2022-10-16T02:37:22;2.97;;;1.40;;
49310;SDS011;35177;45.900;5.946;2022-10-16T02:39:49;8.68;;;1.42;;
49310;SDS011;35177;45.900;5.946;2022-10-16T02:42:15;4.90;;;1.65;;
49310;SDS011;35177;45.900;5.946;2022-10-16T02:44:43;3.25;;;1.50;;
49310;SDS011;35177;45.900;5.946;2022-10-16T02:47:08;4.50;;;1.50;;
49310;SDS011;35177;45.900;5.946;2022-10-16T02:49:34;2.60;;;1.85;;
49310;SDS011;35177;45.900;5.946;2022-10-16T02:52:00;2.17;;;1.33;;
49310;SDS011;35177;45.900;5.946;2022-10-16T02:54:25;3.50;;;1.15;;
49310;SDS011;35177;45.900;5.946;2022-10-16T02:56:51;3.78;;;1.80;;
49310;SDS011;35177;45.900;5.946;2022-10-16T02:59:16;7.20;;;1.63;;
49310;SDS011;35177;45.900;5.946;2022-10-16T03:01:42;1.65;;;1.48;;
49310;SDS011;35177;45.900;5.946;2022-10-16T03:04:07;2.55;;;1.60;;
49310;SDS011;35177;45.900;5.946;2022-10-16T03:06:33;6.25;;;1.33;;
49310;SDS011;35177;45.900;5.946;2022-10-16T03:08:59;4.93;;;1.55;;
49310;SDS011;35177;45.900;5.946;2022-10-16T03:11:25;1.50;;;1.20;;
49310;SDS011;35177;45.900;5.946;2022-10-16T03:13:51;3.80;;;1.65;;
49310;SDS011;35177;45.900;5.946;2022-10-16T03:16:16;4.28;;;1.63;;
49310;SDS011;35177;45.900;5.946;2022-10-16T03:18:42;9.82;;;2.20;;
49310;SDS011;35177;45.900;5.946;2022-10-16T03:21:07;5.20;;;2.15;;
49310;SDS011;35177;45.900;5.946;2022-10-16T03:23:33;6.40;;;1.38;;
49310;SDS011;35177;45.900;5.946;2022-10-16T03:25:58;3.97;;;1.52;;
49310;SDS011;35177;45.900;5.946;2022-10-16T03:28:24;4.22;;;1.33;;
49310;SDS011;35177;45.900;5.946;2022-10-16T03:30:50;3.00;;;1.58;;
49310;SDS011;35177;45.900;5.946;2022-10-16T03:33:15;7.28;;;1.60;;
49310;SDS011;35177;45.900;5.946;2022-10-16T03:35:41;4.15;;;1.50;;
49310;SDS011;35177;45.900;5.946;2022-10-16T03:38:06;2.67;;;1.48;;
49310;SDS011;35177;45.900;5.946;2022-10-16T03:40:32;3.92;;;1.58;;
49310;SDS011;35177;45.900;5.946;2022-10-16T03:42:58;5.70;;;2.35;;
49310;SDS011;35177;45.900;5.946;2022-10-16T03:45:24;8.68;;;2.00;;
49310;SDS011;35177;45.900;5.946;2022-10-16T03:47:49;5.68;;;2.25;;
49310;SDS011;35177;45.900;5.946;2022-10-16T03:50:15;5.22;;;2.20;;
49310;SDS011;35177;45.900;5.946;2022-10-16T03:52:41;5.47;;;2.28;;
49310;SDS011;35177;45.900;5.946;2022-10-16T03:55:06;2.30;;;1.98;;
49310;SDS011;35177;45.900;5.946;2022-10-16T03:57:32;4.80;;;1.67;;
49310;SDS011;35177;45.900;5.946;2022-10-16T03:59:58;10.30;;;1.92;;
49310;SDS011;35177;45.900;5.946;2022-10-16T04:02:24;5.18;;;1.67;;
49310;SDS011;35177;45.900;5.946;2022-10-16T04:04:49;1.73;;;1.58;;
49310;SDS011;35177;45.900;5.946;2022-10-16T04:07:15;7.32;;;2.20;;
49310;SDS011;35177;45.900;5.946;2022-10-16T04:09:40;3.40;;;1.80;;
49310;SDS011;35177;45.900;5.946;2022-10-16T04:12:06;2.95;;;2.22;;
49310;SDS011;35177;45.900;5.946;2022-10-16T04:14:32;13.10;;;2.47;;
49310;SDS011;35177;45.900;5.946;2022-10-16T04:16:58;1.88;;;1.60;;
49310;SDS011;35177;45.900;5.946;2022-10-16T04:19:23;5.68;;;1.92;;
49310;SDS011;35177;45.900;5.946;2022-10-16T04:21:49;4.25;;;1.40;;
49310;SDS011;35177;45.900;5.946;2022-10-16T04:24:15;7.40;;;1.17;;
49310;SDS011;35177;45.900;5.946;2022-10-16T04:26:40;2.00;;;1.23;;
49310;SDS011;35177;45.900;5.946;2022-10-16T04:29:05;4.38;;;1.50;;
49310;SDS011;35177;45.900;5.946;2022-10-16T04:31:32;5.07;;;1.50;;
49310;SDS011;35177;45.900;5.946;2022-10-16T04:33:58;1.73;;;1.38;;
49310;SDS011;35177;45.900;5.946;2022-10-16T04:36:23;2.95;;;1.50;;
49310;SDS011;35177;45.900;5.946;2022-10-16T04:38:49;3.65;;;1.58;;
49310;SDS011;35177;45.900;5.946;2022-10-16T04:41:14;5.65;;;1.80;;
49310;SDS011;35177;45.900;5.946;2022-10-16T04:43:40;2.08;;;1.58;;
49310;SDS011;35177;45.900;5.946;2022-10-16T04:46:05;1.75;;;1.33;;
49310;SDS011;35177;45.900;5.946;2022-10-16T04:48:31;6.35;;;2.08;;
49310;SDS011;35177;45.900;5.946;2022-10-16T04:50:57;5.47;;;1.60;;
49310;SDS011;35177;45.900;5.946;2022-10-16T04:53:23;5.60;;;1.45;;
49310;SDS011;35177;45.900;5.946;2022-10-16T04:55:49;1.25;;;1.10;;
49310;SDS011;35177;45.900;5.946;2022-10-16T04:58:14;8.20;;;1.35;;
49310;SDS011;35177;45.900;5.946;2022-10-16T05:00:40;7.57;;;1.70;;
49310;SDS011;35177;45.900;5.946;2022-10-16T05:03:05;4.03;;;1.33;;
49310;SDS011;35177;45.900;5.946;2022-10-16T05:05:33;5.40;;;1.60;;
49310;SDS011;35177;45.900;5.946;2022-10-16T05:08:00;4.32;;;1.40;;
49310;SDS011;35177;45.900;5.946;2022-10-16T05:10:25;3.80;;;1.75;;
49310;SDS011;35177;45.900;5.946;2022-10-16T05:12:51;2.78;;;1.13;;
49310;SDS011;35177;45.900;5.946;2022-10-16T05:15:17;2.53;;;1.38;;
49310;SDS011;35177;45.900;5.946;2022-10-16T05:17:43;10.95;;;1.85;;
49310;SDS011;35177;45.900;5.946;2022-10-16T05:20:09;4.05;;;1.77;;
49310;SDS011;35177;45.900;5.946;2022-10-16T05:22:34;3.70;;;1.60;;
49310;SDS011;35177;45.900;5.946;2022-10-16T05:25:00;6.60;;;1.65;;
49310;SDS011;35177;45.900;5.946;2022-10-16T05:27:25;3.65;;;1.63;;
49310;SDS011;35177;45.900;5.946;2022-10-16T05:29:51;2.75;;;1.60;;
49310;SDS011;35177;45.900;5.946;2022-10-16T05:32:17;2.45;;;1.30;;
49310;SDS011;35177;45.900;5.946;2022-10-16T05:34:44;5.63;;;1.77;;
49310;SDS011;35177;45.900;5.946;2022-10-16T05:37:10;3.20;;;1.48;;
49310;SDS011;35177;45.900;5.946;2022-10-16T05:39:37;3.35;;;1.67;;
49310;SDS011;35177;45.900;5.946;2022-10-16T05:42:03;2.80;;;1.20;;
49310;SDS011;35177;45.900;5.946;2022-10-16T05:44:29;6.93;;;1.70;;
49310;SDS011;35177;45.900;5.946;2022-10-16T05:46:55;3.70;;;1.63;;
49310;SDS011;35177;45.900;5.946;2022-10-16T05:49:20;3.10;;;2.05;;
49310;SDS011;35177;45.900;5.946;2022-10-16T05:51:46;6.65;;;2.20;;
49310;SDS011;35177;45.900;5.946;2022-10-16T05:54:11;4.68;;;1.42;;
49310;SDS011;35177;45.900;5.946;2022-10-16T05:56:37;3.10;;;1.40;;
49310;SDS011;35177;45.900;5.946;2022-10-16T05:59:03;4.72;;;1.50;;
49310;SDS011;35177;45.900;5.946;2022-10-16T06:01:29;4.40;;;1.33;;
49310;SDS011;35177;45.900;5.946;2022-10-16T06:03:56;4.72;;;1.38;;
49310;SDS011;35177;45.900;5.946;2022-10-16T06:06:23;1.67;;;1.17;;
49310;SDS011;35177;45.900;5.946;2022-10-16T06:08:51;1.58;;;1.27;;
49310;SDS011;35177;45.900;5.946;2022-10-16T06:11:25;2.03;;;1.45;;
49310;SDS011;35177;45.900;5.946;2022-10-16T06:13:54;2.60;;;1.38;;
49310;SDS011;35177;45.900;5.946;2022-10-16T06:16:22;1.73;;;1.35;;
49310;SDS011;35177;45.900;5.946;2022-10-16T06:18:50;7.43;;;1.73;;
49310;SDS011;35177;45.900;5.946;2022-10-16T06:21:17;3.47;;;1.20;;
49310;SDS011;35177;45.900;5.946;2022-10-16T06:23:44;2.75;;;1.58;;
49310;SDS011;35177;45.900;5.946;2022-10-16T06:26:14;6.95;;;1.80;;
49310;SDS011;35177;45.900;5.946;2022-10-16T06:28:41;3.45;;;1.63;;
49310;SDS011;35177;45.900;5.946;2022-10-16T06:31:07;6.72;;;1.52;;
49310;SDS011;35177;45.900;5.946;2022-10-16T06:33:34;5.18;;;2.55;;
49310;SDS011;35177;45.900;5.946;2022-10-16T06:36:34;2.35;;;1.35;;
49310;SDS011;35177;45.900;5.946;2022-10-16T06:38:53;5.05;;;1.50;;
49310;SDS011;35177;45.900;5.946;2022-10-16T06:41:20;8.52;;;1.85;;
49310;SDS011;35177;45.900;5.946;2022-10-16T06:43:47;2.03;;;1.45;;
49310;SDS011;35177;45.900;5.946;2022-10-16T06:46:14;7.05;;;1.77;;
49310;SDS011;35177;45.900;5.946;2022-10-16T06:48:41;6.70;;;2.13;;
49310;SDS011;35177;45.900;5.946;2022-10-16T06:51:25;5.90;;;1.88;;
49310;SDS011;35177;45.900;5.946;2022-10-16T06:53:51;4.78;;;1.30;;
49310;SDS011;35177;45.900;5.946;2022-10-16T06:58:46;3.85;;;1.75;;
49310;SDS011;35177;45.900;5.946;2022-10-16T07:01:13;6.13;;;1.60;;
49310;SDS011;35177;45.900;5.946;2022-10-16T07:03:41;8.73;;;2.10;;
49310;SDS011;35177;45.900;5.946;2022-10-16T07:06:08;3.92;;;1.65;;
49310;SDS011;35177;45.900;5.946;2022-10-16T07:08:36;2.28;;;1.45;;
49310;SDS011;35177;45.900;5.946;2022-10-16T07:11:10;9.95;;;1.88;;
49310;SDS011;35177;45.900;5.946;2022-10-16T07:13:39;9.35;;;2.05;;
49310;SDS011;35177;45.900;5.946;2022-10-16T07:16:07;9.60;;;2.25;;
49310;SDS011;35177;45.900;5.946;2022-10-16T07:18:34;3.17;;;1.67;;
49310;SDS011;35177;45.900;5.946;2022-10-16T07:21:06;4.80;;;1.30;;
49310;SDS011;35177;45.900;5.946;2022-10-16T07:25:59;3.30;;;1.98;;
49310;SDS011;35177;45.900;5.946;2022-10-16T07:28:25;3.30;;;1.75;;
49310;SDS011;35177;45.900;5.946;2022-10-16T07:30:50;1.52;;;1.42;;
49310;SDS011;35177;45.900;5.946;2022-10-16T07:33:16;3.67;;;1.80;;
49310;SDS011;35177;45.900;5.946;2022-10-16T07:35:51;8.18;;;1.60;;
49310;SDS011;35177;45.900;5.946;2022-10-16T07:38:17;16.80;;;1.83;;
49310;SDS011;35177;45.900;5.946;2022-10-16T07:40:43;3.95;;;2.05;;
49310;SDS011;35177;45.900;5.946;2022-10-16T07:43:10;2.63;;;2.00;;
49310;SDS011;35177;45.900;5.946;2022-10-16T07:45:36;2.25;;;1.88;;
49310;SDS011;35177;45.900;5.946;2022-10-16T07:48:01;6.75;;;1.63;;
49310;SDS011;35177;45.900;5.946;2022-10-16T07:50:27;7.63;;;2.13;;
49310;SDS011;35177;45.900;5.946;2022-10-16T07:52:52;5.88;;;2.17;;
49310;SDS011;35177;45.900;5.946;2022-10-16T07:55:18;8.57;;;2.50;;
49310;SDS011;35177;45.900;5.946;2022-10-16T07:57:43;5.40;;;1.88;;
49310;SDS011;35177;45.900;5.946;2022-10-16T08:00:09;2.47;;;1.83;;
49310;SDS011;35177;45.900;5.946;2022-10-16T08:02:39;3.00;;;1.50;;
49310;SDS011;35177;45.900;5.946;2022-10-16T08:05:05;3.63;;;1.63;;
49310;SDS011;35177;45.900;5.946;2022-10-16T08:07:31;5.30;;;1.80;;
49310;SDS011;35177;45.900;5.946;2022-10-16T08:09:56;7.45;;;1.80;;
49310;SDS011;35177;45.900;5.946;2022-10-16T08:12:23;4.40;;;1.63;;
49310;SDS011;35177;45.900;5.946;2022-10-16T08:14:50;7.50;;;1.48;;
49310;SDS011;35177;45.900;5.946;2022-10-16T08:17:16;3.03;;;1.60;;
49310;SDS011;35177;45.900;5.946;2022-10-16T08:19:45;2.05;;;1.75;;
49310;SDS011;35177;45.900;5.946;2022-10-16T08:22:11;2.63;;;1.63;;
49310;SDS011;35177;45.900;5.946;2022-10-16T08:24:37;3.67;;;1.67;;
49310;SDS011;35177;45.900;5.946;2022-10-16T08:27:02;3.75;;;1.27;;
49310;SDS011;35177;45.900;5.946;2022-10-16T08:29:28;4.65;;;1.67;;
49310;SDS011;35177;45.900;5.946;2022-10-16T08:31:54;2.20;;;1.25;;
49310;SDS011;35177;45.900;5.946;2022-10-16T08:34:19;3.85;;;1.50;;
49310;SDS011;35177;45.900;5.946;2022-10-16T08:36:45;4.35;;;1.77;;
49310;SDS011;35177;45.900;5.946;2022-10-16T08:39:12;4.20;;;1.73;;
49310;SDS011;35177;45.900;5.946;2022-10-16T08:45:04;6.35;;;1.30;;
49310;SDS011;35177;45.900;5.946;2022-10-16T08:50:26;7.07;;;1.70;;
49310;SDS011;35177;45.900;5.946;2022-10-16T08:52:53;6.55;;;1.52;;
49310;SDS011;35177;45.900;5.946;2022-10-16T08:58:14;2.30;;;1.10;;
49310;SDS011;35177;45.900;5.946;2022-10-16T09:00:41;4.00;;;1.30;;
49310;SDS011;35177;45.900;5.946;2022-10-16T09:18:21;3.55;;;1.00;;
49310;SDS011;35177;45.900;5.946;2022-10-16T09:21:07;3.17;;;0.90;;
49310;SDS011;35177;45.900;5.946;2022-10-16T09:23:40;3.42;;;1.20;;
49310;SDS011;35177;45.900;5.946;2022-10-16T09:26:09;3.13;;;0.90;;
49310;SDS011;35177;45.900;5.946;2022-10-16T09:28:37;1.02;;;0.90;;
49310;SDS011;35177;45.900;5.946;2022-10-16T09:31:03;3.08;;;1.08;;
49310;SDS011;35177;45.900;5.946;2022-10-16T09:33:29;3.63;;;1.10;;
49310;SDS011;35177;45.900;5.946;2022-10-16T09:36:00;2.70;;;1.17;;
49310;SDS011;35177;45.900;5.946;2022-10-16T09:38:32;2.72;;;0.93;;
49310;SDS011;35177;45.900;5.946;2022-10-16T09:41:02;4.03;;;1.10;;
49310;SDS011;35177;45.900;5.946;2022-10-16T09:46:27;5.30;;;1.05;;
49310;SDS011;35177;45.900;5.946;2022-10-16T09:48:56;2.45;;;1.08;;
49310;SDS011;35177;45.900;5.946;2022-10-16T09:53:57;4.40;;;1.15;;
49310;SDS011;35177;45.900;5.946;2022-10-16T09:56:32;3.60;;;1.30;;
49310;SDS011;35177;45.900;5.946;2022-10-16T09:59:02;5.72;;;1.08;;
49310;SDS011;35177;45.900;5.946;2022-10-16T10:01:47;2.53;;;1.10;;
49310;SDS011;35177;45.900;5.946;2022-10-16T10:04:20;3.33;;;1.10;;
49310;SDS011;35177;45.900;5.946;2022-10-16T10:06:53;6.57;;;1.38;;
49310;SDS011;35177;45.900;5.946;2022-10-16T10:09:22;1.73;;;1.10;;
49310;SDS011;35177;45.900;5.946;2022-10-16T10:11:51;4.00;;;1.10;;
49310;SDS011;35177;45.900;5.946;2022-10-16T10:14:22;3.70;;;0.93;;
49310;SDS011;35177;45.900;5.946;2022-10-16T10:30:24;1.65;;;0.95;;
49310;SDS011;35177;45.900;5.946;2022-10-16T10:41:01;1.85;;;0.90;;
49310;SDS011;35177;45.900;5.946;2022-10-16T10:55:13;2.58;;;0.80;;
49310;SDS011;35177;45.900;5.946;2022-10-16T11:03:12;5.07;;;0.90;;
49310;SDS011;35177;45.900;5.946;2022-10-16T11:05:54;5.82;;;1.13;;
49310;SDS011;35177;45.900;5.946;2022-10-16T11:08:38;1.95;;;0.80;;
49310;SDS011;35177;45.900;5.946;2022-10-16T11:13:40;6.63;;;1.13;;
49310;SDS011;35177;45.900;5.946;2022-10-16T11:16:35;2.83;;;0.90;;
49310;SDS011;35177;45.900;5.946;2022-10-16T11:21:43;1.67;;;0.70;;
49310;SDS011;35177;45.900;5.946;2022-10-16T11:27:37;1.15;;;0.88;;
49310;SDS011;35177;45.900;5.946;2022-10-16T11:30:08;0.80;;;0.80;;
49310;SDS011;35177;45.900;5.946;2022-10-16T11:32:51;3.10;;;0.82;;
49310;SDS011;35177;45.900;5.946;2022-10-16T11:35:25;1.05;;;0.80;;
49310;SDS011;35177;45.900;5.946;2022-10-16T11:38:24;2.58;;;1.00;;
49310;SDS011;35177;45.900;5.946;2022-10-16T11:40:52;3.25;;;0.90;;
49310;SDS011;35177;45.900;5.946;2022-10-16T11:45:55;3.03;;;1.10;;
49310;SDS011;35177;45.900;5.946;2022-10-16T11:51:19;1.55;;;0.93;;
49310;SDS011;35177;45.900;5.946;2022-10-16T11:56:36;2.38;;;1.35;;
49310;SDS011;35177;45.900;5.946;2022-10-16T11:59:13;3.20;;;0.80;;
49310;SDS011;35177;45.900;5.946;2022-10-16T12:01:52;1.42;;;0.90;;
49310;SDS011;35177;45.900;5.946;2022-10-16T12:04:33;2.60;;;0.98;;
49310;SDS011;35177;45.900;5.946;2022-10-16T12:07:11;1.83;;;1.10;;
49310;SDS011;35177;45.900;5.946;2022-10-16T12:09:41;3.15;;;0.90;;
49310;SDS011;35177;45.900;5.946;2022-10-16T12:12:24;1.17;;;0.88;;
49310;SDS011;35177;45.900;5.946;2022-10-16T12:17:48;2.47;;;0.90;;
49310;SDS011;35177;45.900;5.946;2022-10-16T12:25:25;2.25;;;1.33;;
49310;SDS011;35177;45.900;5.946;2022-10-16T12:30:57;4.13;;;1.20;;
49310;SDS011;35177;45.900;5.946;2022-10-16T12:33:27;2.03;;;1.00;;
49310;SDS011;35177;45.900;5.946;2022-10-16T12:35:55;2.70;;;0.90;;
49310;SDS011;35177;45.900;5.946;2022-10-16T12:41:06;2.25;;;0.88;;
49310;SDS011;35177;45.900;5.946;2022-10-16T12:43:46;2.75;;;1.10;;
49310;SDS011;35177;45.900;5.946;2022-10-16T12:48:38;1.90;;;1.02;;
49310;SDS011;35177;45.900;5.946;2022-10-16T12:51:09;2.13;;;1.00;;
49310;SDS011;35177;45.900;5.946;2022-10-16T12:59:32;2.28;;;1.10;;
49310;SDS011;35177;45.900;5.946;2022-10-16T13:02:21;2.50;;;1.10;;
49310;SDS011;35177;45.900;5.946;2022-10-16T13:10:13;3.10;;;0.95;;
49310;SDS011;35177;45.900;5.946;2022-10-16T13:16:06;3.85;;;1.33;;
49310;SDS011;35177;45.900;5.946;2022-10-16T13:32:46;5.28;;;1.50;;
49310;SDS011;35177;45.900;5.946;2022-10-16T13:35:22;2.22;;;1.10;;
49310;SDS011;35177;45.900;5.946;2022-10-16T13:38:02;1.85;;;1.08;;
49310;SDS011;35177;45.900;5.946;2022-10-16T13:40:29;3.08;;;1.20;;
49310;SDS011;35177;45.900;5.946;2022-10-16T13:42:55;1.52;;;1.08;;
49310;SDS011;35177;45.900;5.946;2022-10-16T13:45:22;7.60;;;1.48;;
49310;SDS011;35177;45.900;5.946;2022-10-16T13:48:00;4.75;;;1.33;;
49310;SDS011;35177;45.900;5.946;2022-10-16T13:50:27;4.03;;;1.38;;
49310;SDS011;35177;45.900;5.946;2022-10-16T13:53:02;5.18;;;1.25;;
49310;SDS011;35177;45.900;5.946;2022-10-16T13:55:31;9.13;;;1.45;;
49310;SDS011;35177;45.900;5.946;2022-10-16T13:58:13;1.30;;;1.13;;
49310;SDS011;35177;45.900;5.946;2022-10-16T14:00:40;2.22;;;1.10;;
49310;SDS011;35177;45.900;5.946;2022-10-16T14:03:18;3.15;;;1.27;;
49310;SDS011;35177;45.900;5.946;2022-10-16T14:05:49;2.90;;;1.25;;
49310;SDS011;35177;45.900;5.946;2022-10-16T14:08:17;2.05;;;1.20;;
49310;SDS011;35177;45.900;5.946;2022-10-16T14:10:42;3.25;;;1.38;;
49310;SDS011;35177;45.900;5.946;2022-10-16T14:13:16;1.83;;;1.17;;
49310;SDS011;35177;45.900;5.946;2022-10-16T14:15:45;1.25;;;1.15;;
49310;SDS011;35177;45.900;5.946;2022-10-16T14:18:16;4.80;;;1.48;;
49310;SDS011;35177;45.900;5.946;2022-10-16T14:20:45;6.03;;;1.42;;
49310;SDS011;35177;45.900;5.946;2022-10-16T14:23:22;3.25;;;1.52;;
49310;SDS011;35177;45.900;5.946;2022-10-16T14:25:48;2.55;;;1.23;;
49310;SDS011;35177;45.900;5.946;2022-10-16T14:28:20;2.88;;;1.60;;
49310;SDS011;35177;45.900;5.946;2022-10-16T14:30:57;6.05;;;1.42;;
49310;SDS011;35177;45.900;5.946;2022-10-16T14:36:11;1.90;;;1.25;;
49310;SDS011;35177;45.900;5.946;2022-10-16T14:38:39;3.83;;;1.00;;
49310;SDS011;35177;45.900;5.946;2022-10-16T14:41:07;5.30;;;1.73;;
49310;SDS011;35177;45.900;5.946;2022-10-16T14:45:59;4.18;;;1.88;;
49310;SDS011;35177;45.900;5.946;2022-10-16T14:48:26;3.17;;;1.42;;
49310;SDS011;35177;45.900;5.946;2022-10-16T14:50:52;2.35;;;1.10;;
49310;SDS011;35177;45.900;5.946;2022-10-16T14:53:18;5.72;;;1.45;;
49310;SDS011;35177;45.900;5.946;2022-10-16T14:55:43;6.55;;;1.70;;
49310;SDS011;35177;45.900;5.946;2022-10-16T14:58:16;2.15;;;1.13;;
49310;SDS011;35177;45.900;5.946;2022-10-16T15:00:45;3.97;;;1.88;;
49310;SDS011;35177;45.900;5.946;2022-10-16T15:03:11;5.78;;;1.60;;
49310;SDS011;35177;45.900;5.946;2022-10-16T15:05:37;4.07;;;1.73;;
49310;SDS011;35177;45.900;5.946;2022-10-16T15:08:03;2.55;;;1.05;;
49310;SDS011;35177;45.900;5.946;2022-10-16T15:10:35;6.07;;;1.40;;
49310;SDS011;35177;45.900;5.946;2022-10-16T15:13:09;2.40;;;1.33;;
49310;SDS011;35177;45.900;5.946;2022-10-16T15:15:38;2.83;;;1.63;;
49310;SDS011;35177;45.900;5.946;2022-10-16T15:18:07;3.25;;;1.45;;
49310;SDS011;35177;45.900;5.946;2022-10-16T15:20:34;4.72;;;1.45;;
49310;SDS011;35177;45.900;5.946;2022-10-16T15:23:04;4.20;;;1.60;;
49310;SDS011;35177;45.900;5.946;2022-10-16T15:28:04;2.67;;;1.40;;
49310;SDS011;35177;45.900;5.946;2022-10-16T15:30:30;3.88;;;1.33;;
49310;SDS011;35177;45.900;5.946;2022-10-16T15:32:56;6.03;;;1.50;;
49310;SDS011;35177;45.900;5.946;2022-10-16T15:35:22;4.20;;;1.52;;
49310;SDS011;35177;45.900;5.946;2022-10-16T15:37:47;4.10;;;1.20;;
49310;SDS011;35177;45.900;5.946;2022-10-16T15:40:15;3.78;;;1.40;;
49310;SDS011;35177;45.900;5.946;2022-10-16T15:42:45;3.58;;;1.45;;
49310;SDS011;35177;45.900;5.946;2022-10-16T15:45:11;3.03;;;2.00;;
49310;SDS011;35177;45.900;5.946;2022-10-16T15:47:37;5.43;;;1.27;;
49310;SDS011;35177;45.900;5.946;2022-10-16T15:50:03;1.88;;;1.60;;
49310;SDS011;35177;45.900;5.946;2022-10-16T15:52:30;1.55;;;1.10;;
49310;SDS011;35177;45.900;5.946;2022-10-16T15:54:57;4.18;;;1.45;;
49310;SDS011;35177;45.900;5.946;2022-10-16T15:57:23;2.78;;;1.40;;
49310;SDS011;35177;45.900;5.946;2022-10-16T15:59:49;9.80;;;1.75;;
49310;SDS011;35177;45.900;5.946;2022-10-16T16:02:14;4.40;;;1.45;;
49310;SDS011;35177;45.900;5.946;2022-10-16T16:04:40;3.28;;;1.40;;
49310;SDS011;35177;45.900;5.946;2022-10-16T16:07:06;3.13;;;1.45;;
49310;SDS011;35177;45.900;5.946;2022-10-16T16:09:34;2.42;;;1.60;;
49310;SDS011;35177;45.900;5.946;2022-10-16T16:11:59;2.75;;;1.50;;
49310;SDS011;35177;45.900;5.946;2022-10-16T16:14:26;5.90;;;1.67;;
49310;SDS011;35177;45.900;5.946;2022-10-16T16:16:55;3.85;;;1.77;;
49310;SDS011;35177;45.900;5.946;2022-10-16T16:19:22;5.07;;;1.35;;
49310;SDS011;35177;45.900;5.946;2022-10-16T16:21:48;5.75;;;1.73;;
49310;SDS011;35177;45.900;5.946;2022-10-16T16:24:14;2.72;;;1.60;;
49310;SDS011;35177;45.900;5.946;2022-10-16T16:26:40;4.22;;;1.38;;
49310;SDS011;35177;45.900;5.946;2022-10-16T16:29:09;5.68;;;1.70;;
49310;SDS011;35177;45.900;5.946;2022-10-16T16:31:38;3.10;;;1.60;;
49310;SDS011;35177;45.900;5.946;2022-10-16T16:34:04;4.03;;;1.60;;
49310;SDS011;35177;45.900;5.946;2022-10-16T16:36:30;4.07;;;1.95;;
49310;SDS011;35177;45.900;5.946;2022-10-16T16:38:56;2.08;;;1.80;;
49310;SDS011;35177;45.900;5.946;2022-10-16T16:41:24;5.50;;;1.70;;
49310;SDS011;35177;45.900;5.946;2022-10-16T16:43:54;2.53;;;1.80;;
49310;SDS011;35177;45.900;5.946;2022-10-16T16:46:20;5.10;;;1.85;;
49310;SDS011;35177;45.900;5.946;2022-10-16T16:48:46;4.72;;;1.75;;
49310;SDS011;35177;45.900;5.946;2022-10-16T16:51:15;3.55;;;1.63;;
49310;SDS011;35177;45.900;5.946;2022-10-16T16:53:43;2.90;;;1.70;;
49310;SDS011;35177;45.900;5.946;2022-10-16T16:56:10;3.20;;;1.90;;
49310;SDS011;35177;45.900;5.946;2022-10-16T16:58:35;6.20;;;1.92;;
49310;SDS011;35177;45.900;5.946;2022-10-16T17:01:01;3.90;;;1.80;;
49310;SDS011;35177;45.900;5.946;2022-10-16T17:03:28;3.78;;;1.80;;
49310;SDS011;35177;45.900;5.946;2022-10-16T17:05:55;5.03;;;1.95;;
49310;SDS011;35177;45.900;5.946;2022-10-16T17:08:22;3.20;;;1.88;;
49310;SDS011;35177;45.900;5.946;2022-10-16T17:10:47;5.13;;;1.85;;
49310;SDS011;35177;45.900;5.946;2022-10-16T17:13:17;5.60;;;1.83;;
49310;SDS011;35177;45.900;5.946;2022-10-16T17:15:46;3.47;;;1.92;;
49310;SDS011;35177;45.900;5.946;2022-10-16T17:18:13;7.30;;;1.88;;
49310;SDS011;35177;45.900;5.946;2022-10-16T17:20:39;3.88;;;1.92;;
49310;SDS011;35177;45.900;5.946;2022-10-16T17:23:05;5.70;;;2.08;;
49310;SDS011;35177;45.900;5.946;2022-10-16T17:25:31;3.03;;;2.47;;
49310;SDS011;35177;45.900;5.946;2022-10-16T17:27:57;4.85;;;2.20;;
49310;SDS011;35177;45.900;5.946;2022-10-16T17:30:25;3.00;;;2.13;;